sensor_id;sensor_type;location;lat;lon;timestamp;pressure;altitude;pressure_sealevel;temperature;humidity
54512;BME280;40419;47.438;19.026;2023-03-14T00:00:58;99087.06;;;6.51;70.30
54512;BME280;40419;47.438;19.026;2023-03-14T00:03:23;99079.94;;;6.65;69.98
54512;BME280;40419;47.438;19.026;2023-03-14T00:05:49;99073.28;;;6.61;69.40
54512;BME280;40419;47.438;19.026;2023-03-14T00:08:15;99064.59;;;6.65;69.46
54512;BME280;40419;47.438;19.026;2023-03-14T00:10:43;99061.41;;;6.48;70.34
54512;BME280;40419;47.438;19.026;2023-03-14T00:13:08;99053.91;;;6.44;70.98
54512;BME280;40419;47.438;19.026;2023-03-14T00:15:34;99058.94;;;6.53;70.46
54512;BME280;40419;47.438;19.026;2023-03-14T00:18:00;99054.34;;;6.47;70.55
54512;BME280;40419;47.438;19.026;2023-03-14T00:20:26;99052.94;;;6.51;70.37
54512;BME280;40419;47.438;19.026;2023-03-14T00:22:55;99042.16;;;6.80;69.31
54512;BME280;40419;47.438;19.026;2023-03-14T00:25:20;99039.13;;;6.61;70.23
54512;BME280;40419;47.438;19.026;2023-03-14T00:27:46;99035.03;;;6.65;70.86
54512;BME280;40419;47.438;19.026;2023-03-14T00:30:17;99039.38;;;6.66;70.57
54512;BME280;40419;47.438;19.026;2023-03-14T00:32:43;99031.06;;;6.61;70.75
54512;BME280;40419;47.438;19.026;2023-03-14T00:35:11;99017.78;;;6.53;71.24
54512;BME280;40419;47.438;19.026;2023-03-14T00:37:41;99022.28;;;6.46;71.90
54512;BME280;40419;47.438;19.026;2023-03-14T00:40:07;99007.81;;;6.47;71.32
54512;BME280;40419;47.438;19.026;2023-03-14T00:42:36;99012.16;;;6.48;70.96
54512;BME280;40419;47.438;19.026;2023-03-14T00:45:02;99020.63;;;6.45;71.72
54512;BME280;40419;47.438;19.026;2023-03-14T00:47:27;99022.34;;;6.52;71.71
54512;BME280;40419;47.438;19.026;2023-03-14T00:49:53;99019.94;;;6.36;72.50
54512;BME280;40419;47.438;19.026;2023-03-14T00:52:18;99017.50;;;6.41;72.36
54512;BME280;40419;47.438;19.026;2023-03-14T00:54:46;99006.69;;;6.34;72.43
54512;BME280;40419;47.438;19.026;2023-03-14T00:57:11;99002.53;;;6.32;73.81
54512;BME280;40419;47.438;19.026;2023-03-14T00:59:40;99000.25;;;6.29;72.76
54512;BME280;40419;47.438;19.026;2023-03-14T01:02:05;98996.34;;;6.31;73.39
54512;BME280;40419;47.438;19.026;2023-03-14T01:04:33;99004.03;;;6.41;72.92
54512;BME280;40419;47.438;19.026;2023-03-14T01:07:02;98991.38;;;6.35;72.94
54512;BME280;40419;47.438;19.026;2023-03-14T01:09:27;99006.34;;;6.44;71.58
54512;BME280;40419;47.438;19.026;2023-03-14T01:11:53;98987.88;;;6.34;72.76
54512;BME280;40419;47.438;19.026;2023-03-14T01:14:18;98991.09;;;6.23;72.54
54512;BME280;40419;47.438;19.026;2023-03-14T01:16:44;98991.97;;;6.30;72.08
54512;BME280;40419;47.438;19.026;2023-03-14T01:19:10;98987.91;;;6.41;71.79
54512;BME280;40419;47.438;19.026;2023-03-14T01:21:37;98988.59;;;6.50;71.73
54512;BME280;40419;47.438;19.026;2023-03-14T01:24:11;98976.47;;;6.32;72.64
54512;BME280;40419;47.438;19.026;2023-03-14T01:26:36;98979.56;;;6.29;73.42
54512;BME280;40419;47.438;19.026;2023-03-14T01:29:04;98972.28;;;6.23;73.43
54512;BME280;40419;47.438;19.026;2023-03-14T01:31:34;98956.31;;;6.15;74.26
54512;BME280;40419;47.438;19.026;2023-03-14T01:34:00;98945.56;;;6.15;74.60
54512;BME280;40419;47.438;19.026;2023-03-14T01:36:26;98928.56;;;6.08;74.39
54512;BME280;40419;47.438;19.026;2023-03-14T01:38:52;98936.13;;;5.97;74.67
54512;BME280;40419;47.438;19.026;2023-03-14T01:41:21;98926.34;;;6.18;74.87
54512;BME280;40419;47.438;19.026;2023-03-14T01:43:50;98927.53;;;6.09;74.42
54512;BME280;40419;47.438;19.026;2023-03-14T01:46:40;98932.53;;;6.12;75.05
54512;BME280;40419;47.438;19.026;2023-03-14T01:49:07;98920.50;;;6.08;74.90
54512;BME280;40419;47.438;19.026;2023-03-14T01:54:52;98894.03;;;6.11;75.47
54512;BME280;40419;47.438;19.026;2023-03-14T01:57:47;98895.03;;;6.03;75.37
54512;BME280;40419;47.438;19.026;2023-03-14T02:00:20;98897.53;;;6.05;76.41
54512;BME280;40419;47.438;19.026;2023-03-14T02:02:55;98894.50;;;6.15;75.51
54512;BME280;40419;47.438;19.026;2023-03-14T02:05:28;98891.31;;;6.05;75.36
54512;BME280;40419;47.438;19.026;2023-03-14T02:08:07;98877.00;;;5.97;76.48
54512;BME280;40419;47.438;19.026;2023-03-14T02:10:43;98882.44;;;6.04;76.29
54512;BME280;40419;47.438;19.026;2023-03-14T02:13:11;98889.03;;;6.01;76.97
54512;BME280;40419;47.438;19.026;2023-03-14T02:15:51;98878.78;;;5.90;77.96
54512;BME280;40419;47.438;19.026;2023-03-14T02:18:40;98880.72;;;5.96;77.49
54512;BME280;40419;47.438;19.026;2023-03-14T02:21:49;98868.94;;;5.97;76.93
54512;BME280;40419;47.438;19.026;2023-03-14T02:24:38;98870.91;;;6.10;76.36
54512;BME280;40419;47.438;19.026;2023-03-14T02:27:14;98858.00;;;5.99;77.17
54512;BME280;40419;47.438;19.026;2023-03-14T02:32:34;98855.78;;;5.81;79.27
54512;BME280;40419;47.438;19.026;2023-03-14T02:35:06;98840.13;;;5.84;78.91
54512;BME280;40419;47.438;19.026;2023-03-14T02:37:41;98837.66;;;5.90;78.84
54512;BME280;40419;47.438;19.026;2023-03-14T02:40:10;98833.72;;;5.85;79.24
54512;BME280;40419;47.438;19.026;2023-03-14T02:42:37;98826.84;;;5.76;79.57
54512;BME280;40419;47.438;19.026;2023-03-14T02:47:43;98816.69;;;5.72;81.31
54512;BME280;40419;47.438;19.026;2023-03-14T02:50:19;98834.91;;;5.76;81.03
54512;BME280;40419;47.438;19.026;2023-03-14T02:52:48;98830.81;;;5.80;80.96
54512;BME280;40419;47.438;19.026;2023-03-14T02:55:14;98824.44;;;5.88;81.43
54512;BME280;40419;47.438;19.026;2023-03-14T02:57:43;98818.75;;;5.98;80.37
54512;BME280;40419;47.438;19.026;2023-03-14T03:00:13;98800.69;;;6.33;78.56
54512;BME280;40419;47.438;19.026;2023-03-14T03:02:40;98806.69;;;6.35;79.47
54512;BME280;40419;47.438;19.026;2023-03-14T03:05:13;98816.56;;;6.21;79.80
54512;BME280;40419;47.438;19.026;2023-03-14T03:07:41;98804.41;;;6.26;79.26
54512;BME280;40419;47.438;19.026;2023-03-14T03:10:07;98805.41;;;6.25;80.29
54512;BME280;40419;47.438;19.026;2023-03-14T03:12:33;98796.16;;;6.34;79.00
54512;BME280;40419;47.438;19.026;2023-03-14T03:14:58;98799.00;;;6.19;80.88
54512;BME280;40419;47.438;19.026;2023-03-14T03:17:24;98796.53;;;6.24;80.42
54512;BME280;40419;47.438;19.026;2023-03-14T03:19:52;98796.53;;;6.24;80.79
54512;BME280;40419;47.438;19.026;2023-03-14T03:22:17;98804.75;;;6.16;80.75
54512;BME280;40419;47.438;19.026;2023-03-14T03:24:45;98797.34;;;6.25;81.11
54512;BME280;40419;47.438;19.026;2023-03-14T03:27:11;98787.88;;;6.35;79.75
54512;BME280;40419;47.438;19.026;2023-03-14T03:29:38;98779.16;;;6.20;81.93
54512;BME280;40419;47.438;19.026;2023-03-14T03:32:04;98778.31;;;6.19;81.52
54512;BME280;40419;47.438;19.026;2023-03-14T03:34:32;98774.22;;;6.30;80.75
54512;BME280;40419;47.438;19.026;2023-03-14T03:37:00;98761.59;;;6.24;80.46
54512;BME280;40419;47.438;19.026;2023-03-14T03:39:28;98769.88;;;6.29;80.88
54512;BME280;40419;47.438;19.026;2023-03-14T03:41:55;98763.88;;;6.20;80.94
54512;BME280;40419;47.438;19.026;2023-03-14T03:44:23;98763.22;;;6.18;81.19
54512;BME280;40419;47.438;19.026;2023-03-14T03:46:50;98762.41;;;6.18;81.25
54512;BME280;40419;47.438;19.026;2023-03-14T03:49:17;98760.13;;;6.21;81.29
54512;BME280;40419;47.438;19.026;2023-03-14T03:51:42;98767.59;;;6.26;81.09
54512;BME280;40419;47.438;19.026;2023-03-14T03:54:08;98766.16;;;6.37;79.95
54512;BME280;40419;47.438;19.026;2023-03-14T03:56:33;98764.28;;;6.24;80.65
54512;BME280;40419;47.438;19.026;2023-03-14T03:59:01;98773.91;;;6.05;81.69
54512;BME280;40419;47.438;19.026;2023-03-14T04:01:32;98778.25;;;5.99;82.91
54512;BME280;40419;47.438;19.026;2023-03-14T04:04:02;98769.81;;;6.09;82.54
54512;BME280;40419;47.438;19.026;2023-03-14T04:06:31;98771.72;;;6.22;82.87
54512;BME280;40419;47.438;19.026;2023-03-14T04:08:59;98777.50;;;6.19;82.72
54512;BME280;40419;47.438;19.026;2023-03-14T04:11:57;98783.06;;;6.17;83.07
54512;BME280;40419;47.438;19.026;2023-03-14T04:14:35;98765.25;;;6.10;83.76
54512;BME280;40419;47.438;19.026;2023-03-14T04:17:11;98765.25;;;6.10;84.22
54512;BME280;40419;47.438;19.026;2023-03-14T04:19:42;98764.63;;;6.08;84.64
54512;BME280;40419;47.438;19.026;2023-03-14T04:22:08;98774.91;;;5.97;85.13
54512;BME280;40419;47.438;19.026;2023-03-14T04:24:43;98777.31;;;5.85;86.00
54512;BME280;40419;47.438;19.026;2023-03-14T04:27:09;98771.56;;;5.95;85.06
54512;BME280;40419;47.438;19.026;2023-03-14T04:29:37;98763.22;;;5.77;85.48
54512;BME280;40419;47.438;19.026;2023-03-14T04:32:03;98762.66;;;5.88;85.35
54512;BME280;40419;47.438;19.026;2023-03-14T04:34:28;98763.16;;;5.98;84.38
54512;BME280;40419;47.438;19.026;2023-03-14T04:36:59;98770.91;;;5.86;84.70
54512;BME280;40419;47.438;19.026;2023-03-14T04:39:34;98766.09;;;6.10;83.83
54512;BME280;40419;47.438;19.026;2023-03-14T04:42:25;98773.09;;;6.11;83.89
54512;BME280;40419;47.438;19.026;2023-03-14T04:44:54;98765.94;;;6.25;82.86
54512;BME280;40419;47.438;19.026;2023-03-14T04:47:22;98762.75;;;6.08;83.77
54512;BME280;40419;47.438;19.026;2023-03-14T04:49:51;98749.53;;;6.07;83.88
54512;BME280;40419;47.438;19.026;2023-03-14T04:52:21;98758.03;;;6.17;82.73
54512;BME280;40419;47.438;19.026;2023-03-14T04:54:49;98738.78;;;6.07;84.04
54512;BME280;40419;47.438;19.026;2023-03-14T04:57:19;98749.31;;;6.08;83.94
54512;BME280;40419;47.438;19.026;2023-03-14T04:59:45;98744.66;;;6.24;82.74
54512;BME280;40419;47.438;19.026;2023-03-14T05:02:29;98747.75;;;6.27;82.91
54512;BME280;40419;47.438;19.026;2023-03-14T05:05:06;98748.56;;;6.21;83.11
54512;BME280;40419;47.438;19.026;2023-03-14T05:07:58;98758.94;;;6.44;81.92
54512;BME280;40419;47.438;19.026;2023-03-14T05:10:54;98767.22;;;6.43;80.79
54512;BME280;40419;47.438;19.026;2023-03-14T05:13:44;98747.34;;;6.30;81.20
54512;BME280;40419;47.438;19.026;2023-03-14T05:16:19;98751.53;;;6.53;79.78
54512;BME280;40419;47.438;19.026;2023-03-14T05:18:58;98747.59;;;6.49;79.74
54512;BME280;40419;47.438;19.026;2023-03-14T05:21:45;98745.38;;;6.66;79.20
54512;BME280;40419;47.438;19.026;2023-03-14T05:24:11;98743.47;;;6.53;80.08
54512;BME280;40419;47.438;19.026;2023-03-14T05:26:57;98727.75;;;6.70;78.80
54512;BME280;40419;47.438;19.026;2023-03-14T05:29:49;98729.22;;;6.66;80.05
54512;BME280;40419;47.438;19.026;2023-03-14T05:32:41;98726.53;;;6.72;78.99
54512;BME280;40419;47.438;19.026;2023-03-14T05:35:15;98730.06;;;6.93;76.88
54512;BME280;40419;47.438;19.026;2023-03-14T05:37:54;98731.50;;;7.02;76.37
54512;BME280;40419;47.438;19.026;2023-03-14T05:40:38;98713.72;;;6.95;76.64
54512;BME280;40419;47.438;19.026;2023-03-14T05:43:16;98719.28;;;7.13;76.48
54512;BME280;40419;47.438;19.026;2023-03-14T05:46:00;98706.84;;;7.25;76.77
54512;BME280;40419;47.438;19.026;2023-03-14T05:48:36;98716.34;;;7.41;75.27
54512;BME280;40419;47.438;19.026;2023-03-14T05:51:27;98727.03;;;7.68;73.49
54512;BME280;40419;47.438;19.026;2023-03-14T05:53:57;98726.44;;;7.66;73.99
54512;BME280;40419;47.438;19.026;2023-03-14T05:56:38;98734.00;;;7.96;72.42
54512;BME280;40419;47.438;19.026;2023-03-14T05:59:23;98729.59;;;8.08;71.24
54512;BME280;40419;47.438;19.026;2023-03-14T06:02:03;98737.94;;;8.39;71.04
54512;BME280;40419;47.438;19.026;2023-03-14T06:04:39;98726.47;;;8.57;68.95
54512;BME280;40419;47.438;19.026;2023-03-14T06:07:09;98728.28;;;8.63;68.96
54512;BME280;40419;47.438;19.026;2023-03-14T06:09:35;98717.28;;;8.64;68.86
54512;BME280;40419;47.438;19.026;2023-03-14T06:12:03;98716.81;;;8.99;69.29
54512;BME280;40419;47.438;19.026;2023-03-14T06:14:35;98729.19;;;9.07;66.42
54512;BME280;40419;47.438;19.026;2023-03-14T06:17:02;98722.69;;;9.15;66.79
54512;BME280;40419;47.438;19.026;2023-03-14T06:19:35;98719.94;;;9.21;65.80
54512;BME280;40419;47.438;19.026;2023-03-14T06:22:03;98707.34;;;9.34;65.30
54512;BME280;40419;47.438;19.026;2023-03-14T06:24:34;98716.81;;;9.43;64.67
54512;BME280;40419;47.438;19.026;2023-03-14T06:26:59;98706.47;;;9.40;65.31
54512;BME280;40419;47.438;19.026;2023-03-14T06:29:30;98707.44;;;9.27;63.89
54512;BME280;40419;47.438;19.026;2023-03-14T06:31:56;98721.16;;;9.26;64.92
54512;BME280;40419;47.438;19.026;2023-03-14T06:34:22;98717.50;;;9.13;64.93
54512;BME280;40419;47.438;19.026;2023-03-14T06:36:47;98717.69;;;9.18;65.07
54512;BME280;40419;47.438;19.026;2023-03-14T06:39:13;98718.84;;;9.04;67.45
54512;BME280;40419;47.438;19.026;2023-03-14T06:41:43;98725.38;;;9.15;65.24
54512;BME280;40419;47.438;19.026;2023-03-14T06:44:11;98724.09;;;9.24;65.42
54512;BME280;40419;47.438;19.026;2023-03-14T06:46:37;98733.16;;;9.30;66.16
54512;BME280;40419;47.438;19.026;2023-03-14T06:49:03;98742.88;;;9.12;66.41
54512;BME280;40419;47.438;19.026;2023-03-14T06:51:31;98730.00;;;9.33;64.83
54512;BME280;40419;47.438;19.026;2023-03-14T06:53:57;98736.47;;;9.07;66.01
54512;BME280;40419;47.438;19.026;2023-03-14T06:56:28;98734.00;;;9.05;67.66
54512;BME280;40419;47.438;19.026;2023-03-14T06:58:55;98743.75;;;9.06;68.21
54512;BME280;40419;47.438;19.026;2023-03-14T07:01:28;98756.50;;;9.24;67.09
54512;BME280;40419;47.438;19.026;2023-03-14T07:04:01;98736.75;;;9.23;67.10
54512;BME280;40419;47.438;19.026;2023-03-14T07:06:27;98742.59;;;9.20;66.48
54512;BME280;40419;47.438;19.026;2023-03-14T07:08:55;98737.38;;;9.26;67.05
54512;BME280;40419;47.438;19.026;2023-03-14T07:11:22;98743.56;;;9.51;67.06
54512;BME280;40419;47.438;19.026;2023-03-14T07:13:47;98729.97;;;9.58;66.83
54512;BME280;40419;47.438;19.026;2023-03-14T07:16:14;98726.13;;;9.47;66.74
54512;BME280;40419;47.438;19.026;2023-03-14T07:18:39;98731.69;;;9.52;66.65
54512;BME280;40419;47.438;19.026;2023-03-14T07:21:08;98734.56;;;9.76;65.82
54512;BME280;40419;47.438;19.026;2023-03-14T07:23:35;98750.47;;;9.84;65.26
54512;BME280;40419;47.438;19.026;2023-03-14T07:26:05;98744.03;;;9.85;65.59
54512;BME280;40419;47.438;19.026;2023-03-14T07:28:34;98737.88;;;9.97;64.77
54512;BME280;40419;47.438;19.026;2023-03-14T07:31:05;98740.56;;;10.15;65.13
54512;BME280;40419;47.438;19.026;2023-03-14T07:33:32;98722.59;;;10.21;63.94
54512;BME280;40419;47.438;19.026;2023-03-14T07:35:57;98718.84;;;10.52;64.87
54512;BME280;40419;47.438;19.026;2023-03-14T07:38:27;98722.56;;;10.70;64.44
54512;BME280;40419;47.438;19.026;2023-03-14T07:41:22;98714.72;;;10.50;62.88
54512;BME280;40419;47.438;19.026;2023-03-14T07:44:26;98711.41;;;10.78;63.27
54512;BME280;40419;47.438;19.026;2023-03-14T07:46:51;98707.16;;;10.82;63.53
54512;BME280;40419;47.438;19.026;2023-03-14T07:49:17;98717.19;;;10.93;64.45
54512;BME280;40419;47.438;19.026;2023-03-14T07:51:47;98700.59;;;11.02;63.20
54512;BME280;40419;47.438;19.026;2023-03-14T07:54:15;98691.19;;;11.16;63.42
54512;BME280;40419;47.438;19.026;2023-03-14T07:56:43;98708.38;;;11.33;62.51
54512;BME280;40419;47.438;19.026;2023-03-14T07:59:11;98689.28;;;11.52;61.87
54512;BME280;40419;47.438;19.026;2023-03-14T08:01:37;98688.09;;;11.60;61.96
54512;BME280;40419;47.438;19.026;2023-03-14T08:04:05;98685.88;;;11.57;61.60
54512;BME280;40419;47.438;19.026;2023-03-14T08:06:35;98676.22;;;11.89;60.63
54512;BME280;40419;47.438;19.026;2023-03-14T08:09:04;98672.84;;;11.94;61.34
54512;BME280;40419;47.438;19.026;2023-03-14T08:11:29;98672.44;;;12.02;61.02
54512;BME280;40419;47.438;19.026;2023-03-14T08:13:55;98678.09;;;12.13;60.71
54512;BME280;40419;47.438;19.026;2023-03-14T08:16:21;98677.00;;;12.14;61.15
54512;BME280;40419;47.438;19.026;2023-03-14T08:18:47;98664.56;;;12.30;59.45
54512;BME280;40419;47.438;19.026;2023-03-14T08:21:12;98666.16;;;12.43;59.22
54512;BME280;40419;47.438;19.026;2023-03-14T08:23:38;98662.16;;;12.33;58.52
54512;BME280;40419;47.438;19.026;2023-03-14T08:26:06;98663.03;;;12.51;59.14
54512;BME280;40419;47.438;19.026;2023-03-14T08:28:34;98660.75;;;12.93;58.01
54512;BME280;40419;47.438;19.026;2023-03-14T08:31:00;98659.16;;;13.15;57.90
54512;BME280;40419;47.438;19.026;2023-03-14T08:33:29;98659.00;;;13.38;58.18
54512;BME280;40419;47.438;19.026;2023-03-14T08:35:56;98661.16;;;13.58;55.67
54512;BME280;40419;47.438;19.026;2023-03-14T08:38:25;98659.03;;;13.60;55.27
54512;BME280;40419;47.438;19.026;2023-03-14T08:41:00;98654.97;;;13.63;55.41
54512;BME280;40419;47.438;19.026;2023-03-14T08:43:28;98641.41;;;13.90;53.35
54512;BME280;40419;47.438;19.026;2023-03-14T08:45:57;98645.50;;;13.88;54.38
54512;BME280;40419;47.438;19.026;2023-03-14T08:48:23;98648.81;;;13.95;55.14
54512;BME280;40419;47.438;19.026;2023-03-14T08:50:49;98636.94;;;14.01;53.19
54512;BME280;40419;47.438;19.026;2023-03-14T08:53:17;98641.13;;;14.14;54.80
54512;BME280;40419;47.438;19.026;2023-03-14T08:55:43;98641.91;;;14.09;53.32
54512;BME280;40419;47.438;19.026;2023-03-14T08:58:11;98640.25;;;14.08;52.44
54512;BME280;40419;47.438;19.026;2023-03-14T09:00:37;98633.63;;;14.26;51.28
54512;BME280;40419;47.438;19.026;2023-03-14T09:03:07;98634.00;;;14.08;51.69
54512;BME280;40419;47.438;19.026;2023-03-14T09:05:33;98622.56;;;14.06;51.98
54512;BME280;40419;47.438;19.026;2023-03-14T09:08:02;98626.22;;;14.16;52.74
54512;BME280;40419;47.438;19.026;2023-03-14T09:10:28;98620.88;;;14.27;51.52
54512;BME280;40419;47.438;19.026;2023-03-14T09:12:53;98615.88;;;13.91;52.85
54512;BME280;40419;47.438;19.026;2023-03-14T09:15:22;98609.72;;;14.01;52.11
54512;BME280;40419;47.438;19.026;2023-03-14T09:17:50;98607.00;;;14.28;52.14
54512;BME280;40419;47.438;19.026;2023-03-14T09:20:15;98608.94;;;14.33;51.24
54512;BME280;40419;47.438;19.026;2023-03-14T09:22:43;98594.19;;;14.29;52.35
54512;BME280;40419;47.438;19.026;2023-03-14T09:25:09;98591.06;;;14.42;51.35
54512;BME280;40419;47.438;19.026;2023-03-14T09:27:35;98579.13;;;14.48;51.22
54512;BME280;40419;47.438;19.026;2023-03-14T09:30:04;98581.59;;;14.50;51.61
54512;BME280;40419;47.438;19.026;2023-03-14T09:32:32;98573.41;;;14.50;51.90
54512;BME280;40419;47.438;19.026;2023-03-14T09:35:00;98572.13;;;14.58;52.06
54512;BME280;40419;47.438;19.026;2023-03-14T09:37:26;98571.66;;;14.66;51.50
54512;BME280;40419;47.438;19.026;2023-03-14T09:39:54;98556.78;;;14.79;51.51
54512;BME280;40419;47.438;19.026;2023-03-14T09:42:24;98564.06;;;14.73;51.06
54512;BME280;40419;47.438;19.026;2023-03-14T09:44:56;98553.78;;;14.80;51.02
54512;BME280;40419;47.438;19.026;2023-03-14T09:47:26;98552.81;;;15.02;51.40
54512;BME280;40419;47.438;19.026;2023-03-14T09:49:52;98552.47;;;14.88;51.30
54512;BME280;40419;47.438;19.026;2023-03-14T09:52:22;98537.03;;;15.04;51.71
54512;BME280;40419;47.438;19.026;2023-03-14T09:57:25;98529.28;;;15.38;51.61
54512;BME280;40419;47.438;19.026;2023-03-14T10:00:00;98527.97;;;15.56;51.75
54512;BME280;40419;47.438;19.026;2023-03-14T10:02:35;98521.78;;;15.82;50.40
54512;BME280;40419;47.438;19.026;2023-03-14T10:05:08;98516.63;;;15.90;51.11
54512;BME280;40419;47.438;19.026;2023-03-14T10:07:41;98502.19;;;16.21;49.71
54512;BME280;40419;47.438;19.026;2023-03-14T10:10:11;98505.69;;;16.47;48.91
54512;BME280;40419;47.438;19.026;2023-03-14T10:12:38;98501.09;;;16.47;48.27
54512;BME280;40419;47.438;19.026;2023-03-14T10:15:15;98487.38;;;16.73;46.24
54512;BME280;40419;47.438;19.026;2023-03-14T10:17:48;98487.88;;;16.96;45.35
54512;BME280;40419;47.438;19.026;2023-03-14T10:25:48;98470.63;;;17.11;44.16
54512;BME280;40419;47.438;19.026;2023-03-14T10:28:29;98466.44;;;17.24;44.46
54512;BME280;40419;47.438;19.026;2023-03-14T10:30:57;98461.38;;;17.51;43.60
54512;BME280;40419;47.438;19.026;2023-03-14T10:33:29;98474.94;;;17.27;43.77
54512;BME280;40419;47.438;19.026;2023-03-14T10:35:58;98465.88;;;17.32;43.61
54512;BME280;40419;47.438;19.026;2023-03-14T10:38:27;98467.25;;;17.29;43.00
54512;BME280;40419;47.438;19.026;2023-03-14T10:40:55;98463.13;;;17.32;44.06
54512;BME280;40419;47.438;19.026;2023-03-14T10:43:27;98463.34;;;17.46;43.01
54512;BME280;40419;47.438;19.026;2023-03-14T10:46:01;98454.03;;;17.47;43.54
54512;BME280;40419;47.438;19.026;2023-03-14T10:48:32;98445.38;;;17.29;44.12
54512;BME280;40419;47.438;19.026;2023-03-14T10:53:49;98446.72;;;17.32;44.47
54512;BME280;40419;47.438;19.026;2023-03-14T10:56:23;98445.84;;;17.42;43.09
54512;BME280;40419;47.438;19.026;2023-03-14T10:58:50;98428.34;;;17.43;43.13
54512;BME280;40419;47.438;19.026;2023-03-14T11:06:41;98433.13;;;17.61;43.65
54512;BME280;40419;47.438;19.026;2023-03-14T11:14:43;98412.25;;;17.76;43.00
54512;BME280;40419;47.438;19.026;2023-03-14T11:20:45;98422.72;;;17.63;43.15
54512;BME280;40419;47.438;19.026;2023-03-14T11:23:20;98415.28;;;17.69;43.12
54512;BME280;40419;47.438;19.026;2023-03-14T11:28:40;98404.22;;;17.84;41.98
54512;BME280;40419;47.438;19.026;2023-03-14T11:36:38;98389.09;;;17.58;43.41
54512;BME280;40419;47.438;19.026;2023-03-14T11:39:07;98385.31;;;17.53;43.65
54512;BME280;40419;47.438;19.026;2023-03-14T11:41:40;98376.97;;;17.69;42.39
54512;BME280;40419;47.438;19.026;2023-03-14T11:44:30;98387.03;;;17.79;43.35
54512;BME280;40419;47.438;19.026;2023-03-14T11:47:08;98369.47;;;17.85;43.49
54512;BME280;40419;47.438;19.026;2023-03-14T11:57:32;98371.22;;;18.05;42.32
54512;BME280;40419;47.438;19.026;2023-03-14T12:03:03;98363.31;;;18.28;42.88
54512;BME280;40419;47.438;19.026;2023-03-14T12:05:47;98353.19;;;18.28;42.47
54512;BME280;40419;47.438;19.026;2023-03-14T12:11:16;98356.47;;;18.54;40.70
54512;BME280;40419;47.438;19.026;2023-03-14T12:13:47;98344.81;;;18.44;41.89
54512;BME280;40419;47.438;19.026;2023-03-14T12:16:25;98337.97;;;18.65;42.46
54512;BME280;40419;47.438;19.026;2023-03-14T12:18:54;98330.94;;;18.78;41.51
54512;BME280;40419;47.438;19.026;2023-03-14T12:21:19;98335.84;;;18.81;41.12
54512;BME280;40419;47.438;19.026;2023-03-14T12:26:22;98329.28;;;18.58;41.47
54512;BME280;40419;47.438;19.026;2023-03-14T12:42:17;98321.91;;;18.34;42.52
54512;BME280;40419;47.438;19.026;2023-03-14T12:44:50;98317.25;;;18.05;42.82
54512;BME280;40419;47.438;19.026;2023-03-14T12:49:54;98300.81;;;17.76;43.91
54512;BME280;40419;47.438;19.026;2023-03-14T13:02:46;98286.94;;;17.38;44.42
54512;BME280;40419;47.438;19.026;2023-03-14T13:05:20;98294.00;;;17.44;44.31
54512;BME280;40419;47.438;19.026;2023-03-14T13:10:19;98295.09;;;17.04;44.79
54512;BME280;40419;47.438;19.026;2023-03-14T13:12:54;98289.84;;;17.12;44.37
54512;BME280;40419;47.438;19.026;2023-03-14T13:15:28;98285.53;;;17.06;44.70
54512;BME280;40419;47.438;19.026;2023-03-14T13:17:59;98278.75;;;16.93;44.98
54512;BME280;40419;47.438;19.026;2023-03-14T13:20:35;98283.16;;;16.89;45.80
54512;BME280;40419;47.438;19.026;2023-03-14T13:23:01;98278.81;;;16.88;45.48
54512;BME280;40419;47.438;19.026;2023-03-14T13:25:34;98278.22;;;16.86;45.41
54512;BME280;40419;47.438;19.026;2023-03-14T13:28:01;98281.28;;;16.79;45.68
54512;BME280;40419;47.438;19.026;2023-03-14T13:30:38;98289.25;;;16.71;45.92
54512;BME280;40419;47.438;19.026;2023-03-14T13:33:11;98281.38;;;16.64;45.69
54512;BME280;40419;47.438;19.026;2023-03-14T13:35:44;98277.41;;;16.36;46.90
54512;BME280;40419;47.438;19.026;2023-03-14T13:38:17;98274.63;;;16.41;46.12
54512;BME280;40419;47.438;19.026;2023-03-14T13:40:46;98283.97;;;16.24;46.90
54512;BME280;40419;47.438;19.026;2023-03-14T13:43:19;98283.47;;;16.17;47.31
54512;BME280;40419;47.438;19.026;2023-03-14T13:45:53;98282.97;;;16.05;49.21
54512;BME280;40419;47.438;19.026;2023-03-14T13:48:22;98275.91;;;15.93;49.26
54512;BME280;40419;47.438;19.026;2023-03-14T13:51:11;98289.84;;;15.87;50.52
54512;BME280;40419;47.438;19.026;2023-03-14T13:53:54;98278.91;;;15.82;49.70
54512;BME280;40419;47.438;19.026;2023-03-14T13:56:29;98274.81;;;15.84;50.10
54512;BME280;40419;47.438;19.026;2023-03-14T13:58:55;98283.53;;;15.76;50.38
54512;BME280;40419;47.438;19.026;2023-03-14T14:04:02;98287.91;;;15.77;51.03
54512;BME280;40419;47.438;19.026;2023-03-14T14:06:44;98288.47;;;15.79;50.81
54512;BME280;40419;47.438;19.026;2023-03-14T14:09:19;98292.84;;;15.80;50.65
54512;BME280;40419;47.438;19.026;2023-03-14T14:14:21;98283.81;;;15.85;50.70
54512;BME280;40419;47.438;19.026;2023-03-14T14:16:51;98277.03;;;15.82;51.51
54512;BME280;40419;47.438;19.026;2023-03-14T14:19:22;98268.00;;;15.87;50.93
54512;BME280;40419;47.438;19.026;2023-03-14T14:21:48;98276.16;;;15.97;50.07
54512;BME280;40419;47.438;19.026;2023-03-14T14:24:17;98264.94;;;15.99;50.83
54512;BME280;40419;47.438;19.026;2023-03-14T14:26:54;98267.13;;;16.02;50.40
54512;BME280;40419;47.438;19.026;2023-03-14T14:29:31;98274.19;;;16.23;49.23
54512;BME280;40419;47.438;19.026;2023-03-14T14:32:19;98273.09;;;16.19;50.17
54512;BME280;40419;47.438;19.026;2023-03-14T14:34:57;98264.94;;;16.14;50.12
54512;BME280;40419;47.438;19.026;2023-03-14T14:40:00;98265.56;;;16.56;46.61
54512;BME280;40419;47.438;19.026;2023-03-14T14:42:29;98258.53;;;16.44;48.00
54512;BME280;40419;47.438;19.026;2023-03-14T14:45:02;98255.63;;;16.20;48.18
54512;BME280;40419;47.438;19.026;2023-03-14T14:47:29;98257.28;;;16.11;48.70
54512;BME280;40419;47.438;19.026;2023-03-14T14:49:59;98250.72;;;16.17;47.58